Terminal Aerodrome Forecast
Issued by NWS

Home | Current Version | Previous Version | Text Only | Print | Product List | Glossary On
Versions: 1 2 3 4 5 6 7 8 9 10 11 12 13 14 15 16 17 18
077
FTUS46 KMFR 291738
TAFOTH
TAF
KOTH 291738Z 2918/3018 33008KT P6SM -SHRA SCT015 OVC030
      TEMPO 2918/2920 BKN015
     FM292000 35014G25KT P6SM -SHRA SCT015 BKN030
     FM300300 36009KT P6SM BKN030
     FM300500 VRB03KT P6SM BKN030
     FM300700 14005KT P6SM BKN025
     FM301700 32008KT P6SM BKN030=

USA.gov is the U.S. government's official web portal to all federal, state and local government web resources and services.